sensor_id;sensor_type;location;lat;lon;timestamp;pressure;altitude;pressure_sealevel;temperature;humidity
67099;BME280;54288;53.046;5.668;2023-04-22T00:08:02;101039.25;;;9.85;100.00
67099;BME280;54288;53.046;5.668;2023-04-22T00:11:00;101044.47;;;9.83;100.00
67099;BME280;54288;53.046;5.668;2023-04-22T06:04:21;100896.69;;;12.42;100.00
67099;BME280;54288;53.046;5.668;2023-04-22T06:06:49;100895.09;;;12.68;100.00
67099;BME280;54288;53.046;5.668;2023-04-22T06:09:19;100903.88;;;12.35;100.00
67099;BME280;54288;53.046;5.668;2023-04-22T06:11:45;100896.91;;;12.01;100.00
67099;BME280;54288;53.046;5.668;2023-04-22T06:14:11;100892.94;;;12.20;100.00
67099;BME280;54288;53.046;5.668;2023-04-22T06:16:40;100882.88;;;12.35;100.00
67099;BME280;54288;53.046;5.668;2023-04-22T06:19:09;100890.44;;;12.14;100.00
67099;BME280;54288;53.046;5.668;2023-04-22T06:21:35;100903.88;;;12.02;100.00
67099;BME280;54288;53.046;5.668;2023-04-22T06:24:04;100896.63;;;11.40;100.00
67099;BME280;54288;53.046;5.668;2023-04-22T06:26:30;100897.75;;;11.30;100.00
67099;BME280;54288;53.046;5.668;2023-04-22T06:28:56;100899.44;;;11.33;100.00
67099;BME280;54288;53.046;5.668;2023-04-22T06:31:23;100895.34;;;11.20;100.00
67099;BME280;54288;53.046;5.668;2023-04-22T06:33:49;100902.34;;;11.57;100.00
67099;BME280;54288;53.046;5.668;2023-04-22T06:36:16;100905.03;;;11.54;100.00
67099;BME280;54288;53.046;5.668;2023-04-22T06:38:46;100904.94;;;11.60;100.00
67099;BME280;54288;53.046;5.668;2023-04-22T06:41:26;100902.00;;;11.34;100.00
67099;BME280;54288;53.046;5.668;2023-04-22T06:43:56;100901.34;;;11.25;100.00
67099;BME280;54288;53.046;5.668;2023-04-22T06:46:40;100902.00;;;11.34;100.00
67099;BME280;54288;53.046;5.668;2023-04-22T06:49:25;100901.88;;;11.02;100.00
67099;BME280;54288;53.046;5.668;2023-04-22T06:52:12;100898.44;;;10.99;100.00
67099;BME280;54288;53.046;5.668;2023-04-22T06:57:39;100887.47;;;10.82;100.00
67099;BME280;54288;53.046;5.668;2023-04-22T07:00:06;100884.22;;;10.69;100.00
67099;BME280;54288;53.046;5.668;2023-04-22T07:05:46;100866.16;;;10.56;100.00
67099;BME280;54288;53.046;5.668;2023-04-22T07:08:13;100871.53;;;10.50;100.00
67099;BME280;54288;53.046;5.668;2023-04-22T07:10:48;100881.06;;;10.52;100.00
67099;BME280;54288;53.046;5.668;2023-04-22T07:13:34;100874.75;;;10.62;100.00
67099;BME280;54288;53.046;5.668;2023-04-22T07:16:01;100873.75;;;10.68;100.00
67099;BME280;54288;53.046;5.668;2023-04-22T07:18:28;100865.53;;;10.86;100.00
67099;BME280;54288;53.046;5.668;2023-04-22T07:20:54;100867.03;;;10.97;100.00
67099;BME280;54288;53.046;5.668;2023-04-22T07:23:20;100855.66;;;10.98;100.00
67099;BME280;54288;53.046;5.668;2023-04-22T07:25:46;100851.22;;;11.00;100.00
67099;BME280;54288;53.046;5.668;2023-04-22T07:28:11;100863.75;;;10.88;100.00
67099;BME280;54288;53.046;5.668;2023-04-22T07:30:37;100853.53;;;10.76;100.00
67099;BME280;54288;53.046;5.668;2023-04-22T07:33:03;100861.41;;;10.76;100.00
67099;BME280;54288;53.046;5.668;2023-04-22T07:35:29;100858.59;;;10.83;100.00
67099;BME280;54288;53.046;5.668;2023-04-22T07:37:56;100846.97;;;10.96;100.00
67099;BME280;54288;53.046;5.668;2023-04-22T07:40:21;100847.81;;;10.97;100.00
67099;BME280;54288;53.046;5.668;2023-04-22T07:42:47;100843.31;;;11.03;100.00
67099;BME280;54288;53.046;5.668;2023-04-22T07:45:13;100845.19;;;11.35;100.00
67099;BME280;54288;53.046;5.668;2023-04-22T07:47:39;100845.06;;;11.41;100.00
67099;BME280;54288;53.046;5.668;2023-04-22T07:53:12;100834.34;;;11.86;100.00
67099;BME280;54288;53.046;5.668;2023-04-22T07:55:40;100838.88;;;11.80;100.00
67099;BME280;54288;53.046;5.668;2023-04-22T07:58:05;100837.44;;;12.00;100.00
67099;BME280;54288;53.046;5.668;2023-04-22T08:00:34;100828.16;;;12.19;100.00
67099;BME280;54288;53.046;5.668;2023-04-22T08:03:01;100815.97;;;12.16;100.00
67099;BME280;54288;53.046;5.668;2023-04-22T08:05:27;100811.03;;;12.06;100.00
67099;BME280;54288;53.046;5.668;2023-04-22T08:07:53;100815.34;;;12.08;100.00
67099;BME280;54288;53.046;5.668;2023-04-22T08:10:19;100807.28;;;12.46;100.00
67099;BME280;54288;53.046;5.668;2023-04-22T08:12:45;100805.31;;;12.53;100.00
67099;BME280;54288;53.046;5.668;2023-04-22T08:15:11;100807.94;;;12.53;100.00
67099;BME280;54288;53.046;5.668;2023-04-22T08:17:37;100809.50;;;12.60;100.00
67099;BME280;54288;53.046;5.668;2023-04-22T08:20:05;100812.84;;;12.65;100.00
67099;BME280;54288;53.046;5.668;2023-04-22T08:22:31;100817.38;;;12.89;100.00
67099;BME280;54288;53.046;5.668;2023-04-22T08:24:58;100825.34;;;13.15;100.00
67099;BME280;54288;53.046;5.668;2023-04-22T08:27:24;100827.06;;;13.16;100.00
67099;BME280;54288;53.046;5.668;2023-04-22T08:29:50;100823.75;;;13.11;100.00
67099;BME280;54288;53.046;5.668;2023-04-22T08:32:15;100831.50;;;13.41;100.00
67099;BME280;54288;53.046;5.668;2023-04-22T08:34:44;100833.34;;;13.65;100.00
67099;BME280;54288;53.046;5.668;2023-04-22T08:37:10;100828.66;;;14.48;100.00
67099;BME280;54288;53.046;5.668;2023-04-22T08:39:36;100830.94;;;14.82;100.00
67099;BME280;54288;53.046;5.668;2023-04-22T08:42:02;100822.66;;;15.12;100.00
67099;BME280;54288;53.046;5.668;2023-04-22T08:44:28;100821.69;;;14.93;100.00
67099;BME280;54288;53.046;5.668;2023-04-22T08:46:55;100845.47;;;14.69;100.00
67099;BME280;54288;53.046;5.668;2023-04-22T08:49:22;100825.41;;;15.11;100.00
67099;BME280;54288;53.046;5.668;2023-04-22T08:51:49;100821.31;;;15.47;100.00
67099;BME280;54288;53.046;5.668;2023-04-22T08:54:15;100819.31;;;15.09;98.22
67099;BME280;54288;53.046;5.668;2023-04-22T08:56:43;100821.19;;;15.50;100.00
67099;BME280;54288;53.046;5.668;2023-04-22T08:59:11;100829.31;;;15.22;97.35
67099;BME280;54288;53.046;5.668;2023-04-22T09:01:41;100821.28;;;15.68;99.92
67099;BME280;54288;53.046;5.668;2023-04-22T09:04:09;100821.09;;;15.30;97.86
67099;BME280;54288;53.046;5.668;2023-04-22T09:06:37;100819.31;;;15.09;99.29
67099;BME280;54288;53.046;5.668;2023-04-22T09:09:04;100820.03;;;15.12;100.00
67099;BME280;54288;53.046;5.668;2023-04-22T09:11:40;100832.63;;;15.06;100.00
67099;BME280;54288;53.046;5.668;2023-04-22T09:19:32;100825.16;;;15.17;98.26
67099;BME280;54288;53.046;5.668;2023-04-22T09:21:57;100822.09;;;15.70;100.00
67099;BME280;54288;53.046;5.668;2023-04-22T09:24:24;100825.88;;;16.25;95.92
67099;BME280;54288;53.046;5.668;2023-04-22T09:26:49;100815.38;;;16.82;90.69
67099;BME280;54288;53.046;5.668;2023-04-22T09:29:18;100795.97;;;16.44;87.43
67099;BME280;54288;53.046;5.668;2023-04-22T09:31:48;100784.66;;;16.59;93.24
67099;BME280;54288;53.046;5.668;2023-04-22T09:34:16;100786.88;;;17.24;94.49
67099;BME280;54288;53.046;5.668;2023-04-22T09:36:42;100791.56;;;17.36;88.16
67099;BME280;54288;53.046;5.668;2023-04-22T09:39:09;100793.75;;;17.09;92.42
67099;BME280;54288;53.046;5.668;2023-04-22T09:41:37;100790.78;;;17.34;94.34
67099;BME280;54288;53.046;5.668;2023-04-22T09:44:08;100801.13;;;17.03;90.47
67099;BME280;54288;53.046;5.668;2023-04-22T09:46:35;100802.91;;;17.21;93.00
67099;BME280;54288;53.046;5.668;2023-04-22T09:49:26;100795.69;;;17.24;93.47
67099;BME280;54288;53.046;5.668;2023-04-22T09:51:56;100800.81;;;17.09;92.80
67099;BME280;54288;53.046;5.668;2023-04-22T09:54:22;100805.13;;;16.74;91.31
67099;BME280;54288;53.046;5.668;2023-04-22T09:56:52;100795.25;;;16.59;96.03
67099;BME280;54288;53.046;5.668;2023-04-22T10:01:47;100793.81;;;17.08;94.44
67099;BME280;54288;53.046;5.668;2023-04-22T10:04:13;100802.28;;;17.16;88.74
67099;BME280;54288;53.046;5.668;2023-04-22T10:06:40;100807.84;;;16.91;87.18
67099;BME280;54288;53.046;5.668;2023-04-22T10:09:07;100800.41;;;17.18;86.90
67099;BME280;54288;53.046;5.668;2023-04-22T10:11:34;100795.66;;;17.43;84.33
67099;BME280;54288;53.046;5.668;2023-04-22T10:14:00;100800.91;;;17.78;88.30
67099;BME280;54288;53.046;5.668;2023-04-22T10:16:29;100790.38;;;17.77;88.27
67099;BME280;54288;53.046;5.668;2023-04-22T10:18:59;100784.22;;;18.60;84.33
67099;BME280;54288;53.046;5.668;2023-04-22T10:21:28;100786.88;;;18.60;79.07
67099;BME280;54288;53.046;5.668;2023-04-22T10:23:58;100781.47;;;18.46;81.81
67099;BME280;54288;53.046;5.668;2023-04-22T10:26:53;100773.06;;;18.38;82.40
67099;BME280;54288;53.046;5.668;2023-04-22T10:29:23;100772.13;;;18.05;82.47
67099;BME280;54288;53.046;5.668;2023-04-22T10:34:47;100757.63;;;18.29;80.50
67099;BME280;54288;53.046;5.668;2023-04-22T10:37:17;100759.97;;;18.18;83.84
67099;BME280;54288;53.046;5.668;2023-04-22T10:42:33;100754.63;;;18.52;80.53
67099;BME280;54288;53.046;5.668;2023-04-22T10:45:00;100747.34;;;18.40;77.16
67099;BME280;54288;53.046;5.668;2023-04-22T10:47:32;100759.72;;;17.90;78.25
67099;BME280;54288;53.046;5.668;2023-04-22T10:50:21;100757.75;;;17.42;83.59
67099;BME280;54288;53.046;5.668;2023-04-22T10:52:59;100753.78;;;17.85;83.27
67099;BME280;54288;53.046;5.668;2023-04-22T10:55:50;100763.75;;;17.80;81.92
67099;BME280;54288;53.046;5.668;2023-04-22T10:58:21;100747.72;;;17.49;80.64
67099;BME280;54288;53.046;5.668;2023-04-22T11:00:55;100746.16;;;17.45;82.06
67099;BME280;54288;53.046;5.668;2023-04-22T11:03:29;100729.97;;;17.32;81.37
67099;BME280;54288;53.046;5.668;2023-04-22T11:06:20;100733.06;;;17.59;80.69
67099;BME280;54288;53.046;5.668;2023-04-22T11:09:08;100724.88;;;17.97;79.32
67099;BME280;54288;53.046;5.668;2023-04-22T11:11:34;100730.00;;;18.00;79.39
67099;BME280;54288;53.046;5.668;2023-04-22T11:14:00;100720.63;;;18.10;81.17
67099;BME280;54288;53.046;5.668;2023-04-22T11:16:26;100707.72;;;18.99;82.13
67099;BME280;54288;53.046;5.668;2023-04-22T11:18:54;100725.69;;;19.09;71.85
67099;BME280;54288;53.046;5.668;2023-04-22T11:21:20;100724.16;;;18.59;73.46
67099;BME280;54288;53.046;5.668;2023-04-22T11:23:51;100730.13;;;18.14;74.14
67099;BME280;54288;53.046;5.668;2023-04-22T11:26:17;100727.50;;;18.14;76.61
67099;BME280;54288;53.046;5.668;2023-04-22T11:28:47;100730.44;;;18.08;77.48
67099;BME280;54288;53.046;5.668;2023-04-22T11:31:13;100750.81;;;18.40;76.17
67099;BME280;54288;53.046;5.668;2023-04-22T11:33:39;100745.59;;;18.71;76.50
67099;BME280;54288;53.046;5.668;2023-04-22T11:36:14;100745.97;;;19.10;75.54
67099;BME280;54288;53.046;5.668;2023-04-22T11:38:53;100751.72;;;18.72;75.25
67099;BME280;54288;53.046;5.668;2023-04-22T11:41:20;100745.22;;;19.24;78.83
67099;BME280;54288;53.046;5.668;2023-04-22T11:43:47;100736.69;;;19.48;75.23
67099;BME280;54288;53.046;5.668;2023-04-22T11:46:13;100745.84;;;19.88;76.48
67099;BME280;54288;53.046;5.668;2023-04-22T11:48:39;100733.69;;;19.98;73.90
67099;BME280;54288;53.046;5.668;2023-04-22T11:51:09;100736.69;;;19.78;76.84
67099;BME280;54288;53.046;5.668;2023-04-22T11:53:38;100737.53;;;20.08;68.12
67099;BME280;54288;53.046;5.668;2023-04-22T11:56:05;100729.91;;;19.88;69.54
67099;BME280;54288;53.046;5.668;2023-04-22T11:58:31;100732.34;;;19.77;72.97
67099;BME280;54288;53.046;5.668;2023-04-22T12:00:58;100721.19;;;20.00;73.70
67099;BME280;54288;53.046;5.668;2023-04-22T12:03:26;100715.91;;;20.28;71.41
67099;BME280;54288;53.046;5.668;2023-04-22T12:05:56;100708.13;;;20.39;73.39
67099;BME280;54288;53.046;5.668;2023-04-22T12:08:24;100708.19;;;20.37;74.06
67099;BME280;54288;53.046;5.668;2023-04-22T12:11:02;100715.59;;;20.18;72.66
67099;BME280;54288;53.046;5.668;2023-04-22T12:13:30;100708.47;;;20.05;73.85
67099;BME280;54288;53.046;5.668;2023-04-22T12:16:00;100718.22;;;20.04;76.75
67099;BME280;54288;53.046;5.668;2023-04-22T12:18:37;100714.28;;;20.11;77.51
67099;BME280;54288;53.046;5.668;2023-04-22T12:23:29;100685.91;;;19.82;75.80
67099;BME280;54288;53.046;5.668;2023-04-22T12:25:56;100690.28;;;19.69;75.09
67099;BME280;54288;53.046;5.668;2023-04-22T12:28:22;100685.22;;;19.65;76.22
67099;BME280;54288;53.046;5.668;2023-04-22T12:30:47;100689.31;;;19.27;75.61
67099;BME280;54288;53.046;5.668;2023-04-22T12:33:13;100688.19;;;19.00;79.03
67099;BME280;54288;53.046;5.668;2023-04-22T12:35:39;100694.88;;;19.22;81.29
67099;BME280;54288;53.046;5.668;2023-04-22T12:38:05;100688.50;;;19.40;80.18
67099;BME280;54288;53.046;5.668;2023-04-22T12:40:31;100683.22;;;19.54;77.75
67099;BME280;54288;53.046;5.668;2023-04-22T12:42:57;100692.78;;;19.43;76.49
67099;BME280;54288;53.046;5.668;2023-04-22T12:45:23;100696.19;;;19.45;80.51
67099;BME280;54288;53.046;5.668;2023-04-22T12:47:50;100701.66;;;19.42;80.44
67099;BME280;54288;53.046;5.668;2023-04-22T12:50:19;100695.97;;;19.34;80.16
67099;BME280;54288;53.046;5.668;2023-04-22T12:52:44;100693.59;;;19.29;81.64
67099;BME280;54288;53.046;5.668;2023-04-22T12:55:10;100689.97;;;19.15;81.17
67099;BME280;54288;53.046;5.668;2023-04-22T12:57:36;100697.94;;;19.15;81.73
67099;BME280;54288;53.046;5.668;2023-04-22T13:00:03;100684.63;;;18.85;84.14
67099;BME280;54288;53.046;5.668;2023-04-22T13:02:29;100688.31;;;18.52;87.25
67099;BME280;54288;53.046;5.668;2023-04-22T13:04:55;100678.91;;;18.29;91.22
67099;BME280;54288;53.046;5.668;2023-04-22T13:07:20;100672.38;;;18.04;92.61
67099;BME280;54288;53.046;5.668;2023-04-22T13:09:46;100679.63;;;17.68;91.83
67099;BME280;54288;53.046;5.668;2023-04-22T13:12:12;100688.47;;;17.33;92.60
67099;BME280;54288;53.046;5.668;2023-04-22T13:14:40;100691.03;;;17.00;91.78
67099;BME280;54288;53.046;5.668;2023-04-22T13:17:06;100698.34;;;16.77;92.83
67099;BME280;54288;53.046;5.668;2023-04-22T13:19:32;100688.19;;;16.68;94.22
67099;BME280;54288;53.046;5.668;2023-04-22T13:21:59;100696.34;;;16.63;94.54
67099;BME280;54288;53.046;5.668;2023-04-22T13:24:25;100695.63;;;16.41;95.52
67099;BME280;54288;53.046;5.668;2023-04-22T13:26:50;100700.88;;;16.04;97.37
67099;BME280;54288;53.046;5.668;2023-04-22T13:29:16;100679.53;;;15.89;100.00
67099;BME280;54288;53.046;5.668;2023-04-22T13:31:42;100679.38;;;15.73;100.00
67099;BME280;54288;53.046;5.668;2023-04-22T13:34:10;100679.13;;;15.59;100.00
67099;BME280;54288;53.046;5.668;2023-04-22T13:36:36;100683.81;;;15.33;100.00
67099;BME280;54288;53.046;5.668;2023-04-22T13:39:01;100681.41;;;15.27;100.00
67099;BME280;54288;53.046;5.668;2023-04-22T13:41:27;100691.19;;;15.03;100.00
67099;BME280;54288;53.046;5.668;2023-04-22T13:43:53;100697.94;;;14.89;100.00
67099;BME280;54288;53.046;5.668;2023-04-22T13:46:20;100694.00;;;14.77;100.00
67099;BME280;54288;53.046;5.668;2023-04-22T13:48:46;100711.16;;;14.66;100.00
67099;BME280;54288;53.046;5.668;2023-04-22T13:51:12;100718.25;;;14.64;100.00
67099;BME280;54288;53.046;5.668;2023-04-22T13:53:38;100717.94;;;14.50;100.00
67099;BME280;54288;53.046;5.668;2023-04-22T13:56:03;100713.34;;;14.33;100.00
67099;BME280;54288;53.046;5.668;2023-04-22T13:58:29;100710.84;;;14.29;100.00
67099;BME280;54288;53.046;5.668;2023-04-22T14:00:55;100707.69;;;14.19;100.00
67099;BME280;54288;53.046;5.668;2023-04-22T14:03:20;100701.75;;;14.13;100.00
67099;BME280;54288;53.046;5.668;2023-04-22T14:05:46;100695.00;;;14.06;100.00
67099;BME280;54288;53.046;5.668;2023-04-22T14:08:12;100695.00;;;14.06;100.00
67099;BME280;54288;53.046;5.668;2023-04-22T14:10:38;100694.91;;;14.09;100.00
67099;BME280;54288;53.046;5.668;2023-04-22T14:13:04;100699.59;;;14.01;100.00
67099;BME280;54288;53.046;5.668;2023-04-22T14:15:29;100695.28;;;13.98;100.00
67099;BME280;54288;53.046;5.668;2023-04-22T14:17:55;100683.25;;;13.91;100.00
67099;BME280;54288;53.046;5.668;2023-04-22T14:20:22;100684.38;;;13.86;100.00
67099;BME280;54288;53.046;5.668;2023-04-22T14:22:49;100678.03;;;13.90;100.00
67099;BME280;54288;53.046;5.668;2023-04-22T14:25:15;100682.44;;;13.91;100.00
67099;BME280;54288;53.046;5.668;2023-04-22T14:27:41;100695.59;;;13.91;100.00
67099;BME280;54288;53.046;5.668;2023-04-22T14:30:07;100714.03;;;13.91;100.00
67099;BME280;54288;53.046;5.668;2023-04-22T14:32:34;100758.22;;;13.81;100.00
67099;BME280;54288;53.046;5.668;2023-04-22T14:35:00;100769.63;;;13.56;100.00
67099;BME280;54288;53.046;5.668;2023-04-22T14:37:26;100766.53;;;13.45;100.00
67099;BME280;54288;53.046;5.668;2023-04-22T14:39:51;100760.13;;;13.26;100.00
67099;BME280;54288;53.046;5.668;2023-04-22T14:42:17;100717.03;;;13.04;100.00
67099;BME280;54288;53.046;5.668;2023-04-22T14:44:43;100712.53;;;13.07;100.00
67099;BME280;54288;53.046;5.668;2023-04-22T14:47:09;100710.56;;;13.14;100.00
67099;BME280;54288;53.046;5.668;2023-04-22T14:49:35;100701.94;;;13.10;100.00
67099;BME280;54288;53.046;5.668;2023-04-22T14:52:01;100704.13;;;12.96;100.00
67099;BME280;54288;53.046;5.668;2023-04-22T14:54:27;100706.91;;;12.90;100.00
67099;BME280;54288;53.046;5.668;2023-04-22T14:56:52;100708.75;;;12.88;100.00
67099;BME280;54288;53.046;5.668;2023-04-22T14:59:20;100706.75;;;12.96;100.00
67099;BME280;54288;53.046;5.668;2023-04-22T15:01:46;100708.38;;;13.00;100.00
67099;BME280;54288;53.046;5.668;2023-04-22T15:04:12;100700.91;;;12.87;100.00
67099;BME280;54288;53.046;5.668;2023-04-22T15:06:39;100699.06;;;12.63;100.00
67099;BME280;54288;53.046;5.668;2023-04-22T15:09:05;100700.75;;;12.36;100.00
67099;BME280;54288;53.046;5.668;2023-04-22T15:11:31;100702.91;;;12.22;100.00
67099;BME280;54288;53.046;5.668;2023-04-22T15:13:56;100704.19;;;12.09;100.00
67099;BME280;54288;53.046;5.668;2023-04-22T15:16:22;100695.53;;;12.06;100.00
67099;BME280;54288;53.046;5.668;2023-04-22T15:18:48;100697.63;;;11.95;100.00
67099;BME280;54288;53.046;5.668;2023-04-22T15:21:14;100695.66;;;12.03;100.00
67099;BME280;54288;53.046;5.668;2023-04-22T15:23:40;100693.25;;;11.96;100.00
67099;BME280;54288;53.046;5.668;2023-04-22T15:26:05;100693.50;;;11.85;100.00
67099;BME280;54288;53.046;5.668;2023-04-22T15:28:32;100695.38;;;11.82;100.00
67099;BME280;54288;53.046;5.668;2023-04-22T15:30:58;100687.50;;;11.82;100.00
67099;BME280;54288;53.046;5.668;2023-04-22T15:33:23;100690.13;;;11.82;100.00
67099;BME280;54288;53.046;5.668;2023-04-22T15:35:49;100690.78;;;11.90;100.00
67099;BME280;54288;53.046;5.668;2023-04-22T15:38:15;100694.44;;;11.84;100.00
67099;BME280;54288;53.046;5.668;2023-04-22T15:40:41;100696.66;;;11.67;100.00
67099;BME280;54288;53.046;5.668;2023-04-22T15:43:07;100708.94;;;11.67;100.00
67099;BME280;54288;53.046;5.668;2023-04-22T15:45:33;100709.72;;;11.69;100.00
67099;BME280;54288;53.046;5.668;2023-04-22T15:48:00;100745.97;;;11.87;100.00
67099;BME280;54288;53.046;5.668;2023-04-22T15:50:25;100751.38;;;11.81;100.00
67099;BME280;54288;53.046;5.668;2023-04-22T15:52:52;100758.53;;;11.74;100.00
67099;BME280;54288;53.046;5.668;2023-04-22T15:55:19;100738.72;;;11.64;100.00
67099;BME280;54288;53.046;5.668;2023-04-22T15:57:45;100740.50;;;11.62;100.00
67099;BME280;54288;53.046;5.668;2023-04-22T16:00:11;100734.47;;;11.59;100.00
67099;BME280;54288;53.046;5.668;2023-04-22T16:02:42;100752.13;;;11.52;100.00
67099;BME280;54288;53.046;5.668;2023-04-22T16:05:09;100756.53;;;11.50;100.00
67099;BME280;54288;53.046;5.668;2023-04-22T16:07:36;100763.94;;;11.35;100.00
67099;BME280;54288;53.046;5.668;2023-04-22T16:10:02;100763.16;;;11.30;100.00
67099;BME280;54288;53.046;5.668;2023-04-22T16:12:27;100758.09;;;11.22;100.00
67099;BME280;54288;53.046;5.668;2023-04-22T16:14:53;100765.97;;;11.22;100.00
67099;BME280;54288;53.046;5.668;2023-04-22T16:17:19;100774.78;;;11.20;100.00
67099;BME280;54288;53.046;5.668;2023-04-22T16:19:45;100771.44;;;11.13;100.00
67099;BME280;54288;53.046;5.668;2023-04-22T16:22:11;100768.84;;;11.13;100.00
67099;BME280;54288;53.046;5.668;2023-04-22T16:24:37;100777.59;;;11.12;100.00
67099;BME280;54288;53.046;5.668;2023-04-22T16:27:02;100772.38;;;11.11;100.00
67099;BME280;54288;53.046;5.668;2023-04-22T16:29:28;100772.41;;;11.09;100.00
67099;BME280;54288;53.046;5.668;2023-04-22T16:31:55;100777.81;;;11.02;100.00
67099;BME280;54288;53.046;5.668;2023-04-22T16:34:21;100775.31;;;10.97;100.00
67099;BME280;54288;53.046;5.668;2023-04-22T16:36:47;100773.75;;;10.90;100.00
67099;BME280;54288;53.046;5.668;2023-04-22T16:39:12;100775.47;;;10.91;100.00
67099;BME280;54288;53.046;5.668;2023-04-22T16:41:38;100778.22;;;10.85;100.00
67099;BME280;54288;53.046;5.668;2023-04-22T16:44:05;100784.22;;;10.90;100.00
67099;BME280;54288;53.046;5.668;2023-04-22T16:46:31;100782.56;;;10.86;100.00
67099;BME280;54288;53.046;5.668;2023-04-22T16:48:56;100780.75;;;10.88;100.00
67099;BME280;54288;53.046;5.668;2023-04-22T16:51:22;100773.13;;;10.79;100.00
67099;BME280;54288;53.046;5.668;2023-04-22T16:53:48;100775.66;;;10.82;100.00
67099;BME280;54288;53.046;5.668;2023-04-22T16:56:14;100776.53;;;10.83;100.00
67099;BME280;54288;53.046;5.668;2023-04-22T16:58:40;100768.72;;;10.80;100.00
67099;BME280;54288;53.046;5.668;2023-04-22T17:01:06;100777.47;;;10.80;100.00
67099;BME280;54288;53.046;5.668;2023-04-22T17:03:32;100777.44;;;10.82;100.00
67099;BME280;54288;53.046;5.668;2023-04-22T17:05:57;100771.28;;;10.84;100.00
67099;BME280;54288;53.046;5.668;2023-04-22T17:08:23;100761.66;;;10.83;100.00
67099;BME280;54288;53.046;5.668;2023-04-22T17:10:49;100759.91;;;10.84;100.00
67099;BME280;54288;53.046;5.668;2023-04-22T17:13:16;100767.47;;;10.97;100.00
67099;BME280;54288;53.046;5.668;2023-04-22T17:15:42;100766.69;;;10.94;100.00
67099;BME280;54288;53.046;5.668;2023-04-22T17:18:08;100757.75;;;11.02;100.00
67099;BME280;54288;53.046;5.668;2023-04-22T17:20:34;100761.13;;;11.07;100.00
67099;BME280;54288;53.046;5.668;2023-04-22T17:23:01;100760.06;;;11.14;100.00
67099;BME280;54288;53.046;5.668;2023-04-22T17:25:27;100756.69;;;11.09;100.00
67099;BME280;54288;53.046;5.668;2023-04-22T17:27:54;100759.31;;;11.09;100.00
67099;BME280;54288;53.046;5.668;2023-04-22T17:30:19;100764.66;;;11.06;100.00
67099;BME280;54288;53.046;5.668;2023-04-22T17:32:45;100759.47;;;11.03;100.00
67099;BME280;54288;53.046;5.668;2023-04-22T17:35:11;100768.25;;;11.01;100.00
67099;BME280;54288;53.046;5.668;2023-04-22T17:37:37;100766.38;;;11.06;100.00
67099;BME280;54288;53.046;5.668;2023-04-22T17:40:05;100764.69;;;11.03;100.00
67099;BME280;54288;53.046;5.668;2023-04-22T17:42:33;100766.44;;;11.03;100.00
67099;BME280;54288;53.046;5.668;2023-04-22T17:45:08;100760.66;;;10.90;100.00
67099;BME280;54288;53.046;5.668;2023-04-22T17:47:34;100760.41;;;10.99;100.00
67099;BME280;54288;53.046;5.668;2023-04-22T17:49:59;100759.50;;;11.02;100.00
67099;BME280;54288;53.046;5.668;2023-04-22T17:52:25;100748.81;;;11.09;100.00
67099;BME280;54288;53.046;5.668;2023-04-22T17:54:51;100754.00;;;11.12;100.00
67099;BME280;54288;53.046;5.668;2023-04-22T17:57:17;100751.31;;;11.14;100.00
67099;BME280;54288;53.046;5.668;2023-04-22T17:59:43;100758.41;;;11.10;100.00
67099;BME280;54288;53.046;5.668;2023-04-22T18:02:11;100760.19;;;11.10;100.00
67099;BME280;54288;53.046;5.668;2023-04-22T18:04:37;100770.00;;;11.00;100.00
67099;BME280;54288;53.046;5.668;2023-04-22T18:07:02;100775.22;;;11.02;100.00
67099;BME280;54288;53.046;5.668;2023-04-22T18:09:28;100778.00;;;10.94;100.00
67099;BME280;54288;53.046;5.668;2023-04-22T18:11:55;100783.31;;;10.93;100.00
67099;BME280;54288;53.046;5.668;2023-04-22T18:14:24;100774.59;;;10.91;100.00
67099;BME280;54288;53.046;5.668;2023-04-22T18:16:51;100775.53;;;10.88;100.00
67099;BME280;54288;53.046;5.668;2023-04-22T18:19:17;100770.38;;;10.85;100.00
67099;BME280;54288;53.046;5.668;2023-04-22T18:21:43;100773.09;;;10.81;100.00
67099;BME280;54288;53.046;5.668;2023-04-22T18:24:12;100776.59;;;10.80;100.00
67099;BME280;54288;53.046;5.668;2023-04-22T18:26:39;100779.19;;;10.81;100.00
67099;BME280;54288;53.046;5.668;2023-04-22T18:29:05;100781.88;;;10.78;100.00
67099;BME280;54288;53.046;5.668;2023-04-22T18:31:33;100785.44;;;10.76;100.00
67099;BME280;54288;53.046;5.668;2023-04-22T18:34:00;100774.22;;;10.69;100.00
67099;BME280;54288;53.046;5.668;2023-04-22T18:36:25;100785.59;;;10.68;100.00
67099;BME280;54288;53.046;5.668;2023-04-22T18:38:52;100788.22;;;10.68;100.00
67099;BME280;54288;53.046;5.668;2023-04-22T18:41:17;100776.06;;;10.64;100.00
67099;BME280;54288;53.046;5.668;2023-04-22T18:43:43;100796.09;;;10.67;100.00
67099;BME280;54288;53.046;5.668;2023-04-22T18:46:11;100789.19;;;10.63;100.00
67099;BME280;54288;53.046;5.668;2023-04-22T18:48:37;100782.34;;;10.57;100.00
67099;BME280;54288;53.046;5.668;2023-04-22T18:51:03;100780.53;;;10.61;100.00
67099;BME280;54288;53.046;5.668;2023-04-22T18:53:28;100790.94;;;10.64;100.00
67099;BME280;54288;53.046;5.668;2023-04-22T18:55:54;100792.72;;;10.62;100.00
67099;BME280;54288;53.046;5.668;2023-04-22T18:58:20;100789.28;;;10.60;100.00
67099;BME280;54288;53.046;5.668;2023-04-22T19:00:48;100798.09;;;10.54;100.00
67099;BME280;54288;53.046;5.668;2023-04-22T19:03:15;100801.66;;;10.52;100.00
67099;BME280;54288;53.046;5.668;2023-04-22T19:05:41;100811.28;;;10.51;100.00
67099;BME280;54288;53.046;5.668;2023-04-22T19:08:07;100811.31;;;10.48;100.00